Time;durP1;ratioP1;P1;durP2;ratioP2;P2;SDS_P1;SDS_P2;PMS_P1;PMS_P2;Temp;Humidity;BMP_temperature;BMP_pressure;BME280_temperature;BME280_humidity;BME280_pressure;Samples;Min_cycle;Max_cycle;Signal;HPM_P1;HPM_P2
2021/07/04 00:01:38;;;;;;;7.25;4.00;;;18.00;99.90;;;;;;4987823;28;20149;-71
2021/07/04 00:04:04;;;;;;;5.50;3.80;;;18.00;99.90;;;;;;5008067;28;20110;-71
2021/07/04 00:06:30;;;;;;;5.63;4.30;;;17.90;99.90;;;;;;4991140;28;20091;-71
2021/07/04 00:08:55;;;;;;;4.45;3.90;;;17.90;99.90;;;;;;5005457;28;20077;-71
2021/07/04 00:11:21;;;;;;;5.97;4.55;;;18.00;99.90;;;;;;5006914;28;20078;-71
2021/07/04 00:13:46;;;;;;;5.35;3.65;;;17.90;99.90;;;;;;5004483;28;20120;-71
2021/07/04 00:16:12;;;;;;;5.65;4.60;;;17.90;99.90;;;;;;4997168;28;20132;-71
2021/07/04 00:18:38;;;;;;;4.70;3.70;;;17.90;99.90;;;;;;5007552;28;20446;-71
2021/07/04 00:21:07;;;;;;;4.85;4.03;;;17.90;99.90;;;;;;5007267;28;20126;-70
2021/07/04 00:23:33;;;;;;;5.85;4.32;;;17.90;99.90;;;;;;5008069;28;20449;-70
2021/07/04 00:25:58;;;;;;;4.88;4.03;;;17.80;99.90;;;;;;5006286;28;20173;-71
2021/07/04 00:28:24;;;;;;;4.45;3.78;;;17.80;99.90;;;;;;5006428;28;20136;-71
2021/07/04 00:30:54;;;;;;;5.72;4.22;;;17.80;99.90;;;;;;5007660;28;20081;-70
2021/07/04 00:33:19;;;;;;;4.32;3.92;;;17.80;99.90;;;;;;5010077;28;20082;-70
2021/07/04 00:35:46;;;;;;;5.68;4.03;;;17.80;99.90;;;;;;5009010;28;20098;-71
2021/07/04 00:38:11;;;;;;;6.10;4.40;;;17.80;99.90;;;;;;5010090;28;20086;-70
2021/07/04 00:40:40;;;;;;;5.50;4.45;;;17.70;99.90;;;;;;5011132;28;20137;-72
2021/07/04 00:43:06;;;;;;;5.38;4.43;;;17.70;99.90;;;;;;4992636;28;20182;-71
2021/07/04 00:45:35;;;;;;;5.00;4.20;;;17.70;99.90;;;;;;5005272;28;20087;-71
2021/07/04 00:48:01;;;;;;;4.85;4.28;;;17.70;99.90;;;;;;5001886;28;21106;-71
2021/07/04 00:50:29;;;;;;;4.75;4.20;;;17.70;99.90;;;;;;5008632;28;20086;-71
2021/07/04 00:52:56;;;;;;;4.85;4.35;;;17.70;99.90;;;;;;5004011;28;20081;-71
2021/07/04 00:55:23;;;;;;;6.78;4.90;;;17.70;99.90;;;;;;5010809;28;20110;-71
2021/07/04 00:57:49;;;;;;;4.10;3.70;;;17.60;99.90;;;;;;5011049;28;20067;-71
2021/07/04 01:00:18;;;;;;;5.43;4.93;;;17.60;99.90;;;;;;5006914;28;20082;-71
2021/07/04 01:02:44;;;;;;;5.20;4.53;;;17.50;99.90;;;;;;5007776;28;20101;-71
2021/07/04 01:05:13;;;;;;;5.03;4.53;;;17.50;99.90;;;;;;5009914;28;20618;-71
2021/07/04 01:07:40;;;;;;;5.47;4.22;;;17.50;99.90;;;;;;5008457;28;20136;-71
2021/07/04 01:10:07;;;;;;;5.35;4.25;;;17.50;99.90;;;;;;5010523;28;20979;-71
2021/07/04 01:12:35;;;;;;;5.00;4.32;;;17.60;99.90;;;;;;4992378;28;20105;-71
2021/07/04 01:15:02;;;;;;;5.95;4.55;;;17.50;99.90;;;;;;5008333;28;20129;-71
2021/07/04 01:17:28;;;;;;;7.03;4.32;;;17.60;99.90;;;;;;5008973;28;20169;-71
2021/07/04 01:19:53;;;;;;;5.35;4.65;;;17.60;99.90;;;;;;5002247;28;21563;-71
2021/07/04 01:22:22;;;;;;;5.32;4.45;;;17.40;99.90;;;;;;5008985;28;20558;-71
2021/07/04 01:24:48;;;;;;;4.88;4.20;;;17.50;99.90;;;;;;5007053;28;20160;-71
2021/07/04 01:27:13;;;;;;;6.80;4.75;;;17.40;99.90;;;;;;5007909;28;20523;-71
2021/07/04 01:29:39;;;;;;;5.30;3.85;;;17.40;99.90;;;;;;5011628;28;20071;-71
2021/07/04 01:32:05;;;;;;;4.85;3.97;;;17.50;99.90;;;;;;5008283;28;20074;-71
2021/07/04 01:34:30;;;;;;;5.65;5.00;;;17.60;99.90;;;;;;5008728;28;20454;-71
2021/07/04 01:36:56;;;;;;;5.10;4.60;;;17.60;99.90;;;;;;5005209;28;20117;-71
2021/07/04 01:39:22;;;;;;;5.40;4.20;;;17.50;99.90;;;;;;5010809;28;20212;-71
2021/07/04 01:41:47;;;;;;;5.82;4.25;;;17.60;99.90;;;;;;5008855;28;20081;-71
2021/07/04 01:44:13;;;;;;;7.20;5.03;;;17.60;99.90;;;;;;5009404;28;20144;-71
2021/07/04 01:46:39;;;;;;;5.72;5.15;;;17.60;99.90;;;;;;5005253;28;20086;-70
2021/07/04 01:49:04;;;;;;;5.40;4.90;;;17.60;99.90;;;;;;5010399;28;20735;-71
2021/07/04 01:51:30;;;;;;;5.80;4.80;;;17.60;99.90;;;;;;5006735;28;20086;-71
2021/07/04 01:53:55;;;;;;;5.47;4.68;;;17.60;99.90;;;;;;5008855;28;20551;-71
2021/07/04 01:56:21;;;;;;;5.80;5.10;;;17.60;99.90;;;;;;5002764;28;20106;-71
2021/07/04 01:58:47;;;;;;;5.93;4.57;;;17.60;99.90;;;;;;5005335;28;20450;-71
2021/07/04 02:01:13;;;;;;;6.28;4.75;;;17.60;99.90;;;;;;4994780;28;20561;-71
2021/07/04 02:03:38;;;;;;;6.40;4.97;;;17.60;99.90;;;;;;5006120;28;20181;-71
2021/07/04 02:06:04;;;;;;;6.03;5.07;;;17.50;99.90;;;;;;5008313;28;20493;-71
2021/07/04 02:08:30;;;;;;;6.35;4.90;;;17.60;99.90;;;;;;5008099;28;20074;-71
2021/07/04 02:10:55;;;;;;;5.18;4.68;;;17.50;99.90;;;;;;5005747;28;20074;-71
2021/07/04 02:13:21;;;;;;;5.40;4.65;;;17.50;99.90;;;;;;5010353;28;20086;-71
2021/07/04 02:15:46;;;;;;;5.38;4.88;;;17.50;99.90;;;;;;5007005;28;20122;-71
2021/07/04 02:18:17;;;;;;;5.75;5.15;;;17.50;99.90;;;;;;5006341;28;20079;-71
2021/07/04 02:20:48;;;;;;;5.25;4.65;;;17.50;99.90;;;;;;5007322;28;20078;-71
2021/07/04 02:23:27;;;;;;;6.10;5.15;;;17.50;99.90;;;;;;5001985;28;20558;-71
2021/07/04 02:25:55;;;;;;;5.97;5.15;;;17.50;99.90;;;;;;5008231;28;20126;-71
2021/07/04 02:28:23;;;;;;;5.68;4.68;;;17.60;99.90;;;;;;5010386;28;20674;-70
2021/07/04 02:30:54;;;;;;;6.22;4.50;;;17.60;99.90;;;;;;5010381;28;20081;-71
2021/07/04 02:33:21;;;;;;;5.47;4.70;;;17.60;99.90;;;;;;5010105;28;20161;-71
2021/07/04 02:35:50;;;;;;;7.88;5.72;;;17.60;99.90;;;;;;4991467;28;20120;-71
2021/07/04 02:38:17;;;;;;;5.75;4.63;;;17.50;99.90;;;;;;5009767;28;20115;-71
2021/07/04 02:40:42;;;;;;;4.93;4.43;;;17.50;99.90;;;;;;5010094;28;20586;-71
2021/07/04 02:43:15;;;;;;;5.38;4.47;;;17.50;99.90;;;;;;5026626;22;20197;-70
2021/07/04 02:45:41;;;;;;;6.00;4.57;;;17.50;99.90;;;;;;5010430;28;20070;-70
2021/07/04 02:48:09;;;;;;;5.53;4.43;;;17.50;99.90;;;;;;5005125;28;20078;-70
2021/07/04 02:50:35;;;;;;;5.63;4.72;;;17.50;99.90;;;;;;4989846;28;20076;-71
2021/07/04 02:53:00;;;;;;;5.57;4.20;;;17.50;99.90;;;;;;4987432;28;20094;-71
2021/07/04 02:55:26;;;;;;;6.55;4.28;;;17.50;99.90;;;;;;5009447;28;20789;-71
2021/07/04 02:57:52;;;;;;;6.75;4.03;;;17.40;99.90;;;;;;5006858;28;20087;-71
2021/07/04 03:00:20;;;;;;;5.20;4.63;;;17.50;99.90;;;;;;5005305;28;20090;-69
2021/07/04 03:02:46;;;;;;;5.13;4.45;;;17.50;99.90;;;;;;5019616;28;20185;-71
2021/07/04 03:05:12;;;;;;;7.05;4.43;;;17.50;99.90;;;;;;5009081;28;20081;-72
2021/07/04 03:07:39;;;;;;;5.55;4.38;;;17.50;99.90;;;;;;4993857;28;20562;-72
2021/07/04 03:10:10;;;;;;;7.32;4.50;;;17.50;99.90;;;;;;5026903;28;20089;-70
2021/07/04 03:12:36;;;;;;;5.45;3.90;;;17.40;99.90;;;;;;5014117;28;20521;-70
2021/07/04 03:15:04;;;;;;;7.43;3.95;;;17.40;99.90;;;;;;5015884;28;20067;-71
2021/07/04 03:17:29;;;;;;;4.25;3.70;;;17.30;99.90;;;;;;5009871;28;20082;-70
2021/07/04 03:19:55;;;;;;;4.93;3.75;;;17.40;99.90;;;;;;5019197;28;20084;-70
2021/07/04 03:22:20;;;;;;;5.00;3.80;;;17.40;99.90;;;;;;5010169;28;20177;-71
2021/07/04 03:24:46;;;;;;;5.30;4.15;;;17.40;99.90;;;;;;5016899;28;20097;-70
2021/07/04 03:27:12;;;;;;;4.35;3.95;;;17.30;99.90;;;;;;5009613;28;20077;-70
2021/07/04 03:29:37;;;;;;;4.45;3.90;;;17.30;99.90;;;;;;4996079;28;20075;-71
2021/07/04 03:32:04;;;;;;;6.68;3.67;;;17.30;99.90;;;;;;4987412;28;20090;-70
2021/07/04 03:34:30;;;;;;;6.13;3.25;;;17.40;99.90;;;;;;5016946;28;20730;-70
2021/07/04 03:36:56;;;;;;;5.50;3.90;;;17.40;99.90;;;;;;5017821;28;20105;-70
2021/07/04 03:39:21;;;;;;;3.83;2.92;;;17.40;99.90;;;;;;5015182;28;20082;-70
2021/07/04 03:41:47;;;;;;;3.13;2.50;;;17.40;99.90;;;;;;5012201;28;20093;-72
2021/07/04 03:44:12;;;;;;;3.97;3.33;;;17.40;99.90;;;;;;5015162;28;20113;-70
2021/07/04 03:46:38;;;;;;;3.63;3.22;;;17.30;99.90;;;;;;5022501;28;20136;-70
2021/07/04 03:49:03;;;;;;;4.28;3.42;;;17.30;99.90;;;;;;5014052;28;20080;-70
2021/07/04 03:51:29;;;;;;;3.42;3.13;;;17.30;99.90;;;;;;5017206;28;20113;-70
2021/07/04 03:53:55;;;;;;;3.30;3.00;;;17.20;99.90;;;;;;5019494;28;20517;-71
2021/07/04 03:56:21;;;;;;;3.10;2.72;;;17.20;99.90;;;;;;5013133;28;20484;-70
2021/07/04 03:58:47;;;;;;;3.30;2.92;;;17.20;99.90;;;;;;5023580;28;20074;-69
2021/07/04 04:01:22;;;;;;;3.15;2.83;;;17.20;99.90;;;;;;5019576;28;20789;-70
2021/07/04 04:03:48;;;;;;;4.25;3.67;;;17.30;99.90;;;;;;5010390;28;20094;-71
2021/07/04 04:06:15;;;;;;;3.90;3.20;;;17.30;99.90;;;;;;5015585;28;20075;-70
2021/07/04 04:08:42;;;;;;;3.53;3.00;;;17.30;99.90;;;;;;5030596;28;20116;-71
2021/07/04 04:11:08;;;;;;;4.68;3.10;;;17.30;99.90;;;;;;4996762;28;20104;-70
2021/07/04 04:13:34;;;;;;;4.93;3.03;;;17.30;99.90;;;;;;5015244;28;20113;-70
2021/07/04 04:15:59;;;;;;;4.68;2.72;;;17.30;99.90;;;;;;4999829;28;20074;-71
2021/07/04 04:18:25;;;;;;;2.97;2.60;;;17.30;99.90;;;;;;5009005;28;20457;-70
2021/07/04 04:20:51;;;;;;;4.47;2.90;;;17.30;99.90;;;;;;5013126;28;20089;-70
2021/07/04 04:23:16;;;;;;;3.13;2.67;;;17.30;99.90;;;;;;5011890;28;20570;-70
2021/07/04 04:25:42;;;;;;;3.10;2.80;;;17.20;99.90;;;;;;4995052;28;20158;-71
2021/07/04 04:28:09;;;;;;;3.58;3.20;;;17.10;99.90;;;;;;4994262;28;20078;-70
2021/07/04 04:30:35;;;;;;;3.00;2.70;;;17.10;99.90;;;;;;5014536;28;20216;-72
2021/07/04 04:33:01;;;;;;;3.38;2.42;;;17.10;99.90;;;;;;5021292;28;20165;-69
2021/07/04 04:35:27;;;;;;;3.08;2.20;;;17.10;99.90;;;;;;5016773;28;20078;-70
2021/07/04 04:37:53;;;;;;;3.85;2.63;;;17.20;99.90;;;;;;5012908;28;20089;-70
2021/07/04 04:40:18;;;;;;;3.90;2.78;;;17.10;99.90;;;;;;5019740;28;20113;-69
2021/07/04 04:42:44;;;;;;;4.53;2.70;;;17.10;99.90;;;;;;5011441;28;20130;-70
2021/07/04 04:45:10;;;;;;;3.55;2.67;;;17.10;99.90;;;;;;5018086;28;20105;-70
2021/07/04 04:47:36;;;;;;;4.25;2.17;;;17.10;99.90;;;;;;5024781;28;20494;-71
2021/07/04 04:50:03;;;;;;;4.03;2.50;;;17.20;99.90;;;;;;5011544;28;20506;-71
2021/07/04 04:52:29;;;;;;;4.38;2.30;;;17.30;99.90;;;;;;5014870;28;20177;-70
2021/07/04 04:54:54;;;;;;;2.97;2.63;;;17.30;99.90;;;;;;5012123;28;20162;-70
2021/07/04 04:57:20;;;;;;;3.15;2.45;;;17.20;99.90;;;;;;5011489;28;20110;-71
2021/07/04 04:59:45;;;;;;;3.75;2.72;;;17.10;99.90;;;;;;5016829;28;20153;-70
2021/07/04 05:02:11;;;;;;;5.22;2.97;;;17.10;99.90;;;;;;4998736;28;20502;-70
2021/07/04 05:04:36;;;;;;;3.00;2.70;;;17.20;99.90;;;;;;5020679;28;20090;-71
2021/07/04 05:07:02;;;;;;;2.80;2.47;;;17.20;99.90;;;;;;5011942;28;20063;-70
2021/07/04 05:09:28;;;;;;;2.70;2.17;;;17.20;99.90;;;;;;5021395;28;20077;-70
2021/07/04 05:11:54;;;;;;;3.25;2.65;;;17.30;99.90;;;;;;5022722;28;20090;-70
2021/07/04 05:14:20;;;;;;;4.93;2.58;;;17.20;99.90;;;;;;5002060;28;20081;-70
2021/07/04 05:16:46;;;;;;;4.68;2.78;;;17.30;99.90;;;;;;4990459;28;20081;-70
2021/07/04 05:19:15;;;;;;;3.10;2.50;;;17.20;99.90;;;;;;5013362;28;20101;-70
2021/07/04 05:21:41;;;;;;;5.43;3.33;;;17.20;99.90;;;;;;5023948;28;20070;-71
2021/07/04 05:24:08;;;;;;;3.53;2.70;;;17.20;99.90;;;;;;5000750;28;20094;-71
2021/07/04 05:26:34;;;;;;;3.53;3.00;;;17.20;99.90;;;;;;5020305;28;20161;-70
2021/07/04 05:29:00;;;;;;;4.05;2.60;;;17.20;99.90;;;;;;5025225;28;20074;-71
2021/07/04 05:31:25;;;;;;;2.97;2.50;;;17.30;99.90;;;;;;5021367;28;20558;-70
2021/07/04 05:33:52;;;;;;;2.80;2.58;;;17.20;99.90;;;;;;4996057;28;20222;-69
2021/07/04 05:36:17;;;;;;;3.33;2.75;;;17.30;99.90;;;;;;5016464;28;20090;-71
2021/07/04 05:38:43;;;;;;;3.80;2.80;;;17.30;99.90;;;;;;5011057;28;20652;-70
2021/07/04 05:41:14;;;;;;;4.72;3.08;;;17.30;99.90;;;;;;5011337;28;20129;-71
2021/07/04 05:43:42;;;;;;;3.53;2.75;;;17.30;99.90;;;;;;5010866;28;20109;-70
2021/07/04 05:46:08;;;;;;;3.33;3.00;;;17.30;99.90;;;;;;5011273;28;20105;-70
2021/07/04 05:48:35;;;;;;;3.47;2.60;;;17.40;99.90;;;;;;5009172;28;20538;-71
2021/07/04 05:51:01;;;;;;;2.75;2.50;;;17.40;99.90;;;;;;5008532;28;20158;-71
2021/07/04 05:53:27;;;;;;;5.32;2.97;;;17.40;99.90;;;;;;5008385;28;20098;-72
2021/07/04 05:55:53;;;;;;;4.78;2.97;;;17.30;99.90;;;;;;5010445;28;20514;-70
2021/07/04 05:58:19;;;;;;;3.90;2.78;;;17.30;99.90;;;;;;5015267;28;20120;-70
2021/07/04 06:00:45;;;;;;;3.75;2.63;;;17.40;99.90;;;;;;5007585;28;20117;-70
2021/07/04 06:03:10;;;;;;;3.78;2.67;;;17.40;99.90;;;;;;5003971;28;20094;-70
2021/07/04 06:05:36;;;;;;;3.80;2.83;;;17.40;99.90;;;;;;5005623;28;20558;-70
2021/07/04 06:08:02;;;;;;;4.10;2.70;;;17.50;99.90;;;;;;5009267;28;20082;-71
2021/07/04 06:10:27;;;;;;;4.57;3.05;;;17.50;99.90;;;;;;5007368;28;20093;-70
2021/07/04 06:12:54;;;;;;;3.35;2.60;;;17.60;99.90;;;;;;5006192;28;20125;-70
2021/07/04 06:15:19;;;;;;;4.93;2.58;;;17.50;99.90;;;;;;4989738;28;20148;-70
2021/07/04 06:17:45;;;;;;;4.45;2.88;;;17.60;99.90;;;;;;4987772;28;20079;-70
2021/07/04 06:20:17;;;;;;;2.92;2.63;;;17.60;99.90;;;;;;5006860;28;20078;-71
2021/07/04 06:22:44;;;;;;;2.88;2.58;;;17.70;99.90;;;;;;4987099;28;20094;-71
2021/07/04 06:25:11;;;;;;;3.15;2.58;;;17.60;99.90;;;;;;5007409;28;20070;-71
2021/07/04 06:27:38;;;;;;;5.95;3.08;;;17.70;99.90;;;;;;5005303;28;20083;-71
2021/07/04 06:30:05;;;;;;;2.97;2.45;;;17.70;99.90;;;;;;5006279;28;20074;-71
2021/07/04 06:32:30;;;;;;;3.67;2.78;;;17.60;99.90;;;;;;5001934;28;20874;-71
2021/07/04 06:34:56;;;;;;;3.53;2.78;;;17.70;99.90;;;;;;5007508;28;20083;-71
2021/07/04 06:37:22;;;;;;;5.30;3.30;;;17.70;99.90;;;;;;4988796;28;20566;-71
2021/07/04 06:39:47;;;;;;;3.83;3.28;;;17.70;99.90;;;;;;5007405;28;20078;-71
2021/07/04 06:42:13;;;;;;;3.55;3.25;;;17.70;99.90;;;;;;5005912;28;20565;-71
2021/07/04 06:44:38;;;;;;;4.00;2.75;;;17.70;99.90;;;;;;5007175;28;20104;-71
2021/07/04 06:47:05;;;;;;;6.70;3.55;;;17.80;99.90;;;;;;5008306;28;20113;-71
2021/07/04 06:49:31;;;;;;;4.65;3.75;;;17.90;99.90;;;;;;5006813;28;20071;-71
2021/07/04 06:51:57;;;;;;;4.35;3.53;;;18.00;99.90;;;;;;4989329;28;20558;-71
2021/07/04 06:54:22;;;;;;;4.10;3.67;;;18.10;99.90;;;;;;5006105;28;20082;-71
2021/07/04 06:56:48;;;;;;;4.53;3.50;;;18.10;99.90;;;;;;5007563;28;20082;-71
2021/07/04 06:59:14;;;;;;;4.70;3.97;;;18.10;99.90;;;;;;5000416;28;20565;-71
2021/07/04 07:01:39;;;;;;;5.57;3.55;;;18.10;99.90;;;;;;5000255;28;20176;-71
2021/07/04 07:04:05;;;;;;;5.90;3.78;;;18.00;99.90;;;;;;5005988;28;20106;-71
2021/07/04 07:06:30;;;;;;;4.82;3.78;;;18.10;99.90;;;;;;5004598;28;20608;-70
2021/07/04 07:08:56;;;;;;;4.35;3.63;;;18.10;99.90;;;;;;5006365;28;20081;-71
2021/07/04 07:11:21;;;;;;;4.75;3.63;;;18.20;99.90;;;;;;5009014;28;20090;-71
2021/07/04 07:13:47;;;;;;;4.10;3.70;;;18.20;99.90;;;;;;5005852;28;20094;-71
2021/07/04 07:16:13;;;;;;;4.68;3.90;;;18.30;99.90;;;;;;5006545;28;20465;-71
2021/07/04 07:18:39;;;;;;;3.63;3.30;;;18.30;99.90;;;;;;5009322;28;20058;-71
2021/07/04 07:21:05;;;;;;;4.20;3.45;;;18.40;99.90;;;;;;5005789;28;20082;-71
2021/07/04 07:23:30;;;;;;;4.25;3.55;;;18.50;99.90;;;;;;5005128;28;20090;-72
2021/07/04 07:25:56;;;;;;;4.05;3.60;;;18.50;99.90;;;;;;5008399;28;20089;-71
2021/07/04 07:28:22;;;;;;;5.28;3.72;;;18.50;99.90;;;;;;5010853;28;20066;-71
2021/07/04 07:30:48;;;;;;;4.55;3.65;;;18.70;99.90;;;;;;5000506;28;20136;-70
2021/07/04 07:33:14;;;;;;;4.40;3.85;;;18.70;99.90;;;;;;5018181;28;20105;-70
2021/07/04 07:35:40;;;;;;;3.63;3.22;;;18.60;99.90;;;;;;5009365;28;20429;-69
2021/07/04 07:38:06;;;;;;;3.95;3.22;;;18.70;99.90;;;;;;5017747;28;20181;-70
2021/07/04 07:40:35;;;;;;;4.20;3.80;;;18.80;99.90;;;;;;5015030;28;20161;-71
2021/07/04 07:43:02;;;;;;;6.63;3.83;;;18.80;99.90;;;;;;5019893;28;20094;-70
2021/07/04 07:45:27;;;;;;;4.63;3.63;;;18.80;99.90;;;;;;5011039;28;20070;-73
2021/07/04 07:47:53;;;;;;;4.88;3.10;;;18.80;99.90;;;;;;5009585;28;20173;-70
2021/07/04 07:50:19;;;;;;;3.50;3.20;;;18.90;99.90;;;;;;5009413;28;20621;-71
2021/07/04 07:52:45;;;;;;;4.38;3.85;;;18.90;99.90;;;;;;5017491;28;20090;-70
2021/07/04 07:55:11;;;;;;;4.35;3.38;;;19.00;99.90;;;;;;5010933;28;20553;-69
2021/07/04 07:57:37;;;;;;;4.55;3.20;;;19.10;99.90;;;;;;5028038;28;20192;-71
2021/07/04 08:00:05;;;;;;;3.78;3.08;;;19.00;99.90;;;;;;5017865;28;20117;-73
2021/07/04 08:02:30;;;;;;;4.93;3.53;;;19.10;99.90;;;;;;5012505;28;20656;-70
2021/07/04 08:04:58;;;;;;;3.13;2.88;;;19.10;99.90;;;;;;5011127;28;20070;-71
2021/07/04 08:07:23;;;;;;;4.13;3.10;;;19.10;99.90;;;;;;5013139;28;20124;-69
2021/07/04 08:09:49;;;;;;;3.60;3.30;;;19.10;99.90;;;;;;5012156;28;20078;-70
2021/07/04 08:12:15;;;;;;;3.40;2.70;;;19.20;99.90;;;;;;4990258;28;20172;-70
2021/07/04 08:14:40;;;;;;;3.28;2.92;;;19.20;99.90;;;;;;4998413;28;20130;-69
2021/07/04 08:17:06;;;;;;;3.72;3.42;;;19.20;99.90;;;;;;5008926;28;20081;-70
2021/07/04 08:19:31;;;;;;;4.88;2.95;;;19.40;99.90;;;;;;5017733;28;20473;-71
2021/07/04 08:21:57;;;;;;;4.10;3.08;;;19.30;99.90;;;;;;5007512;28;20473;-70
2021/07/04 08:24:23;;;;;;;3.38;2.90;;;19.40;99.90;;;;;;5005809;28;20410;-70
2021/07/04 08:26:48;;;;;;;3.88;2.72;;;19.40;99.90;;;;;;5006108;28;20102;-70
2021/07/04 08:29:14;;;;;;;3.40;2.97;;;19.50;99.90;;;;;;5009318;28;20145;-72
2021/07/04 08:31:39;;;;;;;3.35;2.83;;;19.50;99.90;;;;;;5008325;28;20094;-70
2021/07/04 08:34:05;;;;;;;3.55;3.00;;;19.50;99.90;;;;;;4991965;28;20086;-70
2021/07/04 08:36:32;;;;;;;3.05;2.58;;;19.60;99.90;;;;;;5010443;28;20078;-71
2021/07/04 08:38:58;;;;;;;3.38;2.80;;;19.50;99.90;;;;;;5007503;28;20077;-71
2021/07/04 08:41:24;;;;;;;4.57;2.80;;;19.50;99.90;;;;;;5017188;28;20442;-70
2021/07/04 08:43:52;;;;;;;3.53;2.75;;;19.50;99.90;;;;;;5008637;28;20129;-70
2021/07/04 08:46:17;;;;;;;3.83;2.83;;;19.50;99.90;;;;;;5019975;28;20150;-70
2021/07/04 08:48:43;;;;;;;5.38;2.95;;;19.60;99.90;;;;;;5006572;28;20445;-71
2021/07/04 08:51:10;;;;;;;4.00;2.60;;;19.70;99.90;;;;;;5007468;28;20147;-71
2021/07/04 08:53:35;;;;;;;3.13;2.50;;;19.80;99.90;;;;;;5072577;22;20323;-71
2021/07/04 08:56:06;;;;;;;4.38;2.63;;;19.90;99.90;;;;;;5017971;28;20125;-73
2021/07/04 08:58:32;;;;;;;3.08;2.38;;;20.10;99.90;;;;;;5018287;28;20799;-71
2021/07/04 09:01:20;;;;;;;4.60;2.72;;;20.20;99.90;;;;;;5009072;28;20082;-71
2021/07/04 09:03:51;;;;;;;4.55;2.80;;;20.40;99.90;;;;;;5027624;28;20557;-71
2021/07/04 09:06:39;;;;;;;3.05;2.35;;;20.30;99.90;;;;;;5011697;28;20078;-73
2021/07/04 09:09:22;;;;;;;3.50;2.47;;;20.40;99.90;;;;;;5029414;28;20070;-73
2021/07/04 09:11:53;;;;;;;3.25;2.95;;;20.50;99.90;;;;;;5028249;28;20074;-71
2021/07/04 09:14:33;;;;;;;2.30;2.00;;;20.60;99.90;;;;;;5029482;28;20535;-72
2021/07/04 09:16:59;;;;;;;2.05;1.85;;;20.50;99.90;;;;;;5028678;28;20073;-71
2021/07/04 09:19:25;;;;;;;3.22;2.35;;;20.50;99.90;;;;;;5030820;28;20502;-71
2021/07/04 09:22:06;;;;;;;2.97;2.67;;;20.50;99.90;;;;;;5029617;28;20082;-71
2021/07/04 09:24:44;;;;;;;3.03;2.20;;;20.50;99.90;;;;;;5028689;28;20101;-70
2021/07/04 09:27:14;;;;;;;2.58;2.38;;;20.50;99.90;;;;;;5010349;28;20081;-70
2021/07/04 09:29:50;;;;;;;2.67;2.47;;;20.50;99.90;;;;;;5031971;28;20116;-71
2021/07/04 09:32:18;;;;;;;3.45;3.00;;;20.50;99.90;;;;;;5027829;28;20074;-69
2021/07/04 09:35:10;;;;;;;3.15;2.30;;;20.50;99.90;;;;;;5001334;28;20106;-71
2021/07/04 09:37:44;;;;;;;3.63;2.22;;;20.60;99.90;;;;;;5021347;28;20077;-71
2021/07/04 09:40:24;;;;;;;3.80;2.47;;;20.50;99.90;;;;;;5029196;28;20082;-69
2021/07/04 09:42:54;;;;;;;3.40;2.75;;;20.40;99.90;;;;;;5027537;28;20093;-70
2021/07/04 09:45:21;;;;;;;3.55;1.95;;;20.30;99.90;;;;;;5024880;28;20646;-70
2021/07/04 09:48:01;;;;;;;2.92;2.63;;;20.40;99.90;;;;;;5032543;28;20082;-69
2021/07/04 09:50:32;;;;;;;3.05;2.17;;;20.40;99.90;;;;;;5012799;28;20074;-72
2021/07/04 09:53:02;;;;;;;2.90;2.45;;;20.50;99.90;;;;;;5006116;28;20579;-70
2021/07/04 09:55:30;;;;;;;3.08;2.50;;;20.70;99.90;;;;;;5025289;28;20151;-71
2021/07/04 09:58:01;;;;;;;2.50;2.30;;;20.70;99.90;;;;;;5029151;28;20683;-70
2021/07/04 10:00:32;;;;;;;3.28;2.70;;;20.70;99.90;;;;;;5025310;28;20151;-72
2021/07/04 10:03:19;;;;;;;2.33;2.13;;;20.60;99.90;;;;;;5024888;28;20097;-71
2021/07/04 10:05:54;;;;;;;2.55;2.17;;;20.70;99.90;;;;;;5017354;28;20074;-69
2021/07/04 10:08:21;;;;;;;3.40;2.70;;;20.80;99.90;;;;;;5007507;28;20164;-70
2021/07/04 10:10:52;;;;;;;2.60;2.13;;;20.90;99.90;;;;;;5029332;28;20138;-70
2021/07/04 10:13:29;;;;;;;3.83;2.85;;;21.10;99.90;;;;;;5030211;28;20565;-70
2021/07/04 10:15:55;;;;;;;2.67;2.22;;;21.10;99.90;;;;;;5023951;28;20077;-70
2021/07/04 10:18:21;;;;;;;3.67;2.30;;;21.20;99.90;;;;;;5022365;28;20101;-71
2021/07/04 10:20:48;;;;;;;2.50;2.08;;;21.20;99.90;;;;;;5026906;28;20793;-71
